»·PEaware :: N780MZ KMRY-KSAC

N780MZ :: KMRY-KSAC

FLIGHT INFORMATION

Flight Status: Arrived
Operator: Privately registered:
United States
More flights under this callsign
Pilot: Elliott T. (30246)
Aircraft: SOCATA TBM-900
(TBM9)
More flights by this aircraft type
Origin: KMRY Monterey Peninsula
United States
Destination: KSAC Sacramento Executive
United States
More flights between these airports :: More routes between these airports
Route:
File this flight plan on PilotEdge
Remarks: Coastline VFR transition
Altitude:
(Current/Filed)
7,500ft
Speed:
(Current/Filed)
150kts
Departed: 10-Aug-20 07:32 PM
Arrived: 10-Aug-20 08:20 PM
Distance/Time
Traveled:
117nm/0:48
Distance/Time
To Go:
Arrived

Flight Plot

Page will automatically refresh every two minutes.

Flight plan parsing failed; only flown route is shown


Map Options




Map Legend


Flown Route
Filed Route
Departure Airport
Arrival Airport
Navaid (VOR, NDB)
Fix

Horizontal Profiles

Position Reports

Time Latitude Longitude Heading Altitude Ground
Speed
10-Aug-20 19:17 36.588267 -121.852184 22 173ft 0kts
10-Aug-20 19:18 36.588267 -121.852184 22 173ft 0kts
10-Aug-20 19:19 36.588267 -121.852184 22 173ft 0kts
10-Aug-20 19:20 36.588267 -121.852184 22 173ft 0kts
10-Aug-20 19:21 36.588267 -121.852184 22 173ft 0kts
10-Aug-20 19:22 36.588267 -121.852184 22 173ft 0kts
10-Aug-20 19:23 36.588267 -121.852184 22 173ft 0kts
10-Aug-20 19:24 36.588633 -121.851741 106 171ft 4kts
10-Aug-20 19:25 36.587942 -121.849600 113 178ft 12kts
10-Aug-20 19:26 36.586110 -121.844559 112 205ft 16kts
10-Aug-20 19:27 36.584565 -121.840011 111 242ft 12kts
10-Aug-20 19:28 36.582819 -121.834826 97 234ft 9kts
10-Aug-20 19:29 36.582801 -121.834656 97 232ft 0kts
10-Aug-20 19:30 36.583564 -121.834238 292 230ft 17kts
10-Aug-20 19:31 36.594154 -121.865468 288 1310ft 136kts
10-Aug-20 19:32 36.609361 -121.913211 289 3212ft 152kts
10-Aug-20 19:33 36.631974 -121.960307 320 4532ft 190kts
10-Aug-20 19:34 36.677898 -122.002428 321 4503ft 210kts
10-Aug-20 19:35 36.722864 -122.043600 321 4495ft 189kts
10-Aug-20 19:36 36.764812 -122.081751 321 4498ft 183kts
10-Aug-20 19:37 36.806977 -122.120099 321 4506ft 193kts
10-Aug-20 19:38 36.851929 -122.161208 321 4501ft 200kts
10-Aug-20 19:39 36.897087 -122.202600 321 4500ft 200kts
10-Aug-20 19:40 36.942062 -122.244101 321 4501ft 202kts
10-Aug-20 19:41 36.987264 -122.286326 321 4496ft 204kts
10-Aug-20 19:42 37.032747 -122.328955 321 4492ft 204kts
10-Aug-20 19:43 37.077989 -122.371725 321 4494ft 204kts
10-Aug-20 19:44 37.128953 -122.401761 345 4497ft 205kts
10-Aug-20 19:45 37.184219 -122.419659 345 4499ft 205kts
10-Aug-20 19:46 37.240066 -122.435505 348 4499ft 205kts
10-Aug-20 19:47 37.294732 -122.449565 348 4546ft 188kts
10-Aug-20 19:48 37.344751 -122.462434 348 4553ft 182kts
10-Aug-20 19:49 37.394526 -122.475229 348 4563ft 190kts
10-Aug-20 19:50 37.449378 -122.489291 348 4557ft 208kts
10-Aug-20 19:51 37.506796 -122.503382 348 4542ft 209kts
10-Aug-20 19:52 37.565156 -122.506438 358 4532ft 209kts
10-Aug-20 19:53 37.623583 -122.506345 358 4523ft 209kts
10-Aug-20 19:54 37.681672 -122.506027 358 4523ft 208kts
10-Aug-20 19:55 37.739851 -122.505681 358 4523ft 208kts
10-Aug-20 19:56 37.797900 -122.505094 358 4521ft 208kts
10-Aug-20 19:57 37.855566 -122.505433 356 4516ft 206kts
10-Aug-20 19:58 37.912721 -122.505419 356 4511ft 203kts
10-Aug-20 19:59 37.968856 -122.504852 356 4504ft 200kts
10-Aug-20 20:00 38.022857 -122.494777 39 4498ft 207kts
10-Aug-20 20:01 38.057886 -122.435951 55 4580ft 202kts
10-Aug-20 20:02 38.085827 -122.379756 56 5463ft 179kts
10-Aug-20 20:03 38.115977 -122.318033 58 5504ft 239kts
10-Aug-20 20:04 38.152787 -122.242382 59 5485ft 257kts
10-Aug-20 20:05 38.190693 -122.164269 60 5484ft 259kts
10-Aug-20 20:06 38.228326 -122.086534 60 5553ft 257kts
10-Aug-20 20:07 38.266217 -122.008058 60 5524ft 260kts
10-Aug-20 20:08 38.304205 -121.929226 60 5499ft 261kts
10-Aug-20 20:09 38.341797 -121.851039 60 5491ft 249kts
10-Aug-20 20:10 38.372232 -121.787606 60 5403ft 187kts
10-Aug-20 20:11 38.398632 -121.732424 60 4376ft 184kts
10-Aug-20 20:12 38.423497 -121.680453 60 3316ft 157kts
10-Aug-20 20:13 38.446649 -121.631942 60 2360ft 180kts
10-Aug-20 20:15 38.472921 -121.577203 60 1359ft 166kts
10-Aug-20 20:16 38.501681 -121.536074 33 1022ft 129kts
10-Aug-20 20:17 38.529792 -121.513343 32 927ft 100kts
10-Aug-20 20:18 38.535985 -121.493524 149 518ft 73kts
10-Aug-20 20:19 38.518672 -121.489650 212 121ft 73kts
10-Aug-20 20:20 38.508795 -121.497704 213 17ft 17kts
10-Aug-20 20:21 38.508749 -121.499067 304 17ft 0kts
10-Aug-20 20:22 38.510933 -121.497679 30 19ft 8kts
10-Aug-20 20:23 38.513555 -121.495804 294 19ft 8kts
10-Aug-20 20:24 38.514253 -121.498465 190 19ft 5kts

Navigation Log

Ident Type
Flight plan parsing failed, navigation log unavailable